Time;durP1;ratioP1;P1;durP2;ratioP2;P2;SDS_P1;SDS_P2;PMS_P1;PMS_P2;Temp;Humidity;BMP_temperature;BMP_pressure;BME280_temperature;BME280_humidity;BME280_pressure;Samples;Min_cycle;Max_cycle;Signal;HPM_P1;HPM_P2
2023/05/13 00:01:28;;;;;;;3.57;3.13;;;10.60;99.90;;;10.63;64.02;95374.22;5030431;28;20979;-58
2023/05/13 00:03:56;;;;;;;5.10;2.30;;;10.60;99.90;;;10.64;64.33;95378.47;5035887;28;20479;-58
2023/05/13 00:06:23;;;;;;;3.17;2.97;;;10.60;99.90;;;10.66;64.02;95376.59;5036962;28;20530;-65
2023/05/13 00:08:50;;;;;;;5.93;3.00;;;10.70;99.90;;;10.68;64.05;95377.28;5030674;28;20476;-66
2023/05/13 00:11:18;;;;;;;2.90;2.30;;;10.70;99.90;;;10.68;63.54;95374.66;5039440;28;20962;-59
2023/05/13 00:13:46;;;;;;;4.87;3.57;;;10.70;99.90;;;10.69;63.33;95380.72;5032566;28;20482;-62
2023/05/13 00:16:14;;;;;;;3.07;2.77;;;10.70;99.90;;;10.66;62.79;95384.47;5031847;28;21015;-58
2023/05/13 00:18:41;;;;;;;5.67;3.43;;;10.70;99.70;;;10.61;62.94;95388.44;5034441;28;21355;-64
2023/05/13 00:21:08;;;;;;;4.03;2.47;;;10.60;99.60;;;10.60;62.77;95387.63;5034746;28;20460;-59
2023/05/13 00:23:36;;;;;;;2.80;2.57;;;10.60;99.50;;;10.59;62.88;95388.56;5040231;28;20505;-65
2023/05/13 00:26:04;;;;;;;5.20;3.17;;;10.60;99.70;;;10.59;62.96;95386.75;5033323;28;20464;-64
2023/05/13 00:28:31;;;;;;;2.70;2.50;;;10.60;99.80;;;10.60;62.89;95392.88;5036079;28;20476;-57
2023/05/13 00:31:02;;;;;;;7.77;2.87;;;10.60;99.60;;;10.62;62.61;95390.94;5043571;28;20451;-58
2023/05/13 00:33:32;;;;;;;3.00;2.37;;;10.60;99.50;;;10.62;62.54;95390.94;5038630;28;20495;-65
2023/05/13 00:35:59;;;;;;;3.93;2.73;;;10.60;99.60;;;10.62;62.28;95385.69;5043291;28;20571;-57
2023/05/13 00:38:27;;;;;;;3.40;2.43;;;10.60;99.20;;;10.61;62.30;95380.56;5040453;28;20471;-67
2023/05/13 00:40:54;;;;;;;8.00;2.77;;;10.60;99.20;;;10.62;62.17;95390.13;5036173;28;20453;-66
2023/05/13 00:43:21;;;;;;;4.03;2.30;;;10.60;99.20;;;10.62;61.88;95383.06;5036902;28;20487;-65
2023/05/13 00:45:48;;;;;;;5.17;2.40;;;10.60;98.90;;;10.60;61.70;95379.72;5035935;28;21145;-58
2023/05/13 00:48:17;;;;;;;5.13;2.80;;;10.60;98.80;;;10.58;62.16;95371.09;5035879;28;20488;-65
2023/05/13 00:50:44;;;;;;;2.30;2.20;;;10.60;98.70;;;10.56;61.73;95375.66;5032223;28;20507;-58
2023/05/13 00:53:12;;;;;;;3.40;2.53;;;10.60;98.70;;;10.53;61.54;95373.28;5031781;28;20473;-59
2023/05/13 00:55:42;;;;;;;3.93;2.13;;;10.60;98.60;;;10.50;61.64;95371.78;5036775;28;20457;-58
2023/05/13 00:58:10;;;;;;;3.40;2.60;;;10.50;98.60;;;10.52;61.57;95376.91;5033904;28;20831;-65
2023/05/13 01:00:41;;;;;;;3.63;2.30;;;10.50;98.60;;;10.52;61.17;95361.13;5038890;28;20544;-65
2023/05/13 01:03:12;;;;;;;1.77;1.63;;;10.60;98.30;;;10.53;61.32;95365.41;5038830;28;20464;-65
2023/05/13 01:05:47;;;;;;;5.50;2.70;;;10.60;98.40;;;10.54;61.05;95374.97;5033498;28;20874;-58
2023/05/13 01:08:20;;;;;;;1.80;1.70;;;10.60;98.60;;;10.54;60.70;95375.78;5036666;28;21084;-62
2023/05/13 01:10:50;;;;;;;1.93;1.83;;;10.60;97.90;;;10.57;60.46;95385.25;5032328;28;21323;-65
2023/05/13 01:13:20;;;;;;;2.80;1.80;;;10.50;97.60;;;10.57;60.16;95383.44;5035414;28;21142;-65
2023/05/13 01:15:51;;;;;;;5.80;2.27;;;10.60;97.40;;;10.59;59.98;95380.69;5036322;28;20492;-58
2023/05/13 01:18:20;;;;;;;6.93;2.53;;;10.60;97.40;;;10.63;60.90;95386.50;5032661;28;20614;-58
2023/05/13 01:20:49;;;;;;;1.90;1.70;;;10.60;98.10;;;10.68;61.45;95390.44;5036725;28;20526;-57
2023/05/13 01:23:18;;;;;;;2.23;1.80;;;10.70;98.60;;;10.70;61.08;95392.94;5037007;28;20480;-58
2023/05/13 01:25:45;;;;;;;3.20;2.57;;;10.70;98.30;;;10.74;61.93;95395.19;5035412;28;21511;-58
2023/05/13 01:28:12;;;;;;;3.70;2.43;;;10.70;99.00;;;10.75;62.53;95394.22;5036503;28;21012;-57
2023/05/13 01:30:41;;;;;;;4.10;2.40;;;10.70;99.40;;;10.76;61.71;95393.25;5035000;28;20464;-66
2023/05/13 01:33:10;;;;;;;3.00;2.40;;;10.70;99.00;;;10.79;61.17;95397.44;5034880;28;20488;-57
2023/05/13 01:35:37;;;;;;;3.53;2.50;;;10.80;98.40;;;10.79;61.75;95396.59;5032007;28;20464;-65
2023/05/13 01:38:04;;;;;;;2.43;2.00;;;10.80;99.00;;;10.79;62.56;95391.34;5035480;28;20495;-66
2023/05/13 01:40:33;;;;;;;3.70;2.73;;;10.80;99.50;;;10.79;62.88;95384.28;5035201;28;21004;-65
2023/05/13 01:43:01;;;;;;;4.13;3.73;;;10.80;99.90;;;10.80;63.14;95393.84;5035719;28;20586;-58
2023/05/13 01:45:29;;;;;;;3.70;3.43;;;10.80;99.90;;;10.82;63.59;95399.81;5037838;28;20538;-58
2023/05/13 01:47:56;;;;;;;3.43;3.23;;;10.80;99.90;;;10.84;63.69;95397.06;5035050;28;21175;-58
2023/05/13 01:50:23;;;;;;;4.27;3.97;;;10.80;99.90;;;10.85;63.25;95393.47;5038322;28;20462;-64
2023/05/13 01:52:51;;;;;;;3.60;2.87;;;10.80;99.90;;;10.79;63.58;95397.44;5032556;28;20584;-65
2023/05/13 01:55:18;;;;;;;5.33;3.43;;;10.80;99.90;;;10.71;63.68;95405.13;5031898;28;20457;-58
2023/05/13 01:57:47;;;;;;;3.97;3.60;;;10.70;99.90;;;10.63;64.39;95403.16;5034888;28;20573;-57
2023/05/13 02:00:16;;;;;;;9.80;3.73;;;10.60;99.90;;;10.56;64.29;95401.97;5036465;28;20534;-65
2023/05/13 02:02:43;;;;;;;3.60;3.30;;;10.60;99.90;;;10.51;64.57;95401.53;5036670;28;20534;-65
2023/05/13 02:05:10;;;;;;;3.97;3.67;;;10.50;99.90;;;10.45;65.27;95404.66;5029698;28;20908;-66
2023/05/13 02:07:37;;;;;;;7.57;4.03;;;10.50;99.90;;;10.39;65.25;95400.72;5030249;28;21056;-65
2023/05/13 02:10:06;;;;;;;4.63;4.10;;;10.40;99.90;;;10.34;65.70;95397.66;5036063;28;21023;-57
2023/05/13 02:12:33;;;;;;;6.00;5.40;;;10.30;99.90;;;10.28;66.10;95390.22;5029491;28;20818;-58
2023/05/13 02:15:02;;;;;;;5.20;4.80;;;10.30;99.90;;;10.19;66.01;95397.06;5031626;28;21081;-58
2023/05/13 02:17:29;;;;;;;5.87;4.60;;;10.20;99.90;;;10.15;66.64;95403.53;5031610;28;20503;-57
2023/05/13 02:19:56;;;;;;;5.67;4.77;;;10.20;99.90;;;10.11;66.99;95404.75;5029145;28;20468;-65
2023/05/13 02:22:24;;;;;;;5.50;4.70;;;10.10;99.90;;;10.07;66.79;95411.19;5029636;28;20564;-57
2023/05/13 02:24:51;;;;;;;7.00;4.60;;;10.10;99.90;;;10.03;67.43;95408.81;5032970;28;20533;-65
2023/05/13 02:27:19;;;;;;;8.07;6.03;;;10.10;99.90;;;10.02;67.33;95409.78;5036898;28;20476;-65
2023/05/13 02:29:46;;;;;;;6.10;4.57;;;10.00;99.90;;;10.00;67.43;95409.06;5033890;28;20464;-58
2023/05/13 02:32:15;;;;;;;8.03;5.07;;;10.00;99.90;;;9.98;67.81;95408.34;5033678;28;20484;-65
2023/05/13 02:34:42;;;;;;;5.70;4.47;;;10.00;99.90;;;10.01;67.54;95417.78;5033468;28;20457;-58
2023/05/13 02:37:10;;;;;;;9.20;4.90;;;10.00;99.90;;;10.03;67.86;95427.19;5034014;28;20488;-58
2023/05/13 02:39:37;;;;;;;5.10;4.70;;;10.00;99.90;;;10.08;68.10;95428.63;5031313;28;20526;-57
2023/05/13 02:42:05;;;;;;;8.07;4.90;;;10.10;99.90;;;10.13;68.35;95423.84;5032073;28;20966;-59
2023/05/13 02:44:32;;;;;;;5.90;5.00;;;10.10;99.90;;;10.18;68.13;95432.22;5034923;28;21039;-58
2023/05/13 02:47:00;;;;;;;7.67;5.10;;;10.10;99.90;;;10.25;68.14;95433.38;5034572;28;20912;-65
2023/05/13 02:49:28;;;;;;;7.23;5.50;;;10.20;99.90;;;10.30;68.16;95433.84;5030866;28;21043;-65
2023/05/13 02:51:56;;;;;;;5.37;4.27;;;10.30;99.90;;;10.36;68.03;95429.91;5032048;28;20464;-57
2023/05/13 02:54:23;;;;;;;7.13;4.10;;;10.30;99.90;;;10.42;68.56;95431.22;5033247;28;21241;-58
2023/05/13 02:56:50;;;;;;;7.27;4.47;;;10.40;99.90;;;10.46;68.55;95437.91;5032999;28;20869;-56
2023/05/13 02:59:17;;;;;;;5.00;4.60;;;10.40;99.90;;;10.51;68.70;95441.81;5031886;28;20451;-57
2023/05/13 03:01:45;;;;;;;5.57;4.90;;;10.50;99.90;;;10.54;68.49;95446.00;5032703;28;21064;-66
2023/05/13 03:04:12;;;;;;;5.30;4.50;;;10.50;99.90;;;10.58;68.27;95439.50;5031851;28;20475;-64
2023/05/13 03:06:41;;;;;;;4.87;4.20;;;10.60;99.90;;;10.61;68.32;95439.25;5026483;28;20464;-59
2023/05/13 03:09:08;;;;;;;6.27;5.50;;;10.60;99.90;;;10.63;68.34;95442.59;5032361;28;20475;-65
2023/05/13 03:11:35;;;;;;;5.63;4.77;;;10.60;99.90;;;10.67;68.41;95451.06;5035072;28;20467;-65
2023/05/13 03:14:03;;;;;;;9.87;5.27;;;10.70;99.90;;;10.69;68.10;95450.00;5030706;28;20475;-66
2023/05/13 03:16:30;;;;;;;9.47;4.77;;;10.70;99.90;;;10.72;67.97;95449.75;5037439;28;20479;-67
2023/05/13 03:18:57;;;;;;;5.90;5.10;;;10.70;99.90;;;10.73;67.85;95446.13;5035548;28;20876;-57
2023/05/13 03:21:25;;;;;;;8.30;4.90;;;10.70;99.90;;;10.74;67.33;95436.47;5035104;28;20444;-65
2023/05/13 03:23:53;;;;;;;5.40;4.30;;;10.70;99.90;;;10.76;67.57;95440.63;5034533;28;20465;-57
2023/05/13 03:26:21;;;;;;;5.93;5.00;;;10.80;99.90;;;10.79;67.74;95444.78;5033233;28;20499;-59
2023/05/13 03:28:48;;;;;;;8.77;5.43;;;10.80;99.90;;;10.82;67.73;95452.44;5029766;28;20586;-58
2023/05/13 03:31:15;;;;;;;5.93;5.27;;;10.80;99.90;;;10.85;67.45;95454.00;5035752;28;20930;-58
2023/05/13 03:33:43;;;;;;;10.63;5.97;;;10.80;99.90;;;10.86;67.47;95451.22;5035605;28;20785;-57
2023/05/13 03:36:10;;;;;;;7.80;5.17;;;10.80;99.90;;;10.89;67.36;95456.25;5033694;28;20455;-66
2023/05/13 03:38:37;;;;;;;6.60;4.50;;;10.90;99.90;;;10.92;67.73;95449.88;5034358;28;20966;-57
2023/05/13 03:41:06;;;;;;;9.63;5.00;;;10.90;99.90;;;10.96;67.70;95456.56;5026759;28;20880;-58
2023/05/13 03:43:33;;;;;;;4.90;4.50;;;10.90;99.90;;;10.98;67.72;95459.06;5031574;28;20492;-65
2023/05/13 03:46:01;;;;;;;8.17;5.33;;;10.90;99.90;;;11.00;67.75;95472.91;5035065;28;20587;-66
2023/05/13 03:48:28;;;;;;;6.10;5.50;;;11.00;99.90;;;11.02;67.56;95471.00;5036050;28;20555;-57
2023/05/13 03:50:55;;;;;;;8.63;4.50;;;11.00;99.90;;;11.04;67.40;95469.09;5032188;28;20483;-66
2023/05/13 03:53:23;;;;;;;5.70;5.20;;;11.00;99.90;;;11.06;67.44;95473.25;5032377;28;20550;-65
2023/05/13 03:55:50;;;;;;;5.30;4.80;;;11.00;99.90;;;11.07;67.11;95474.91;5032419;28;20448;-58
2023/05/13 03:58:20;;;;;;;4.83;4.20;;;11.10;99.90;;;11.09;66.82;95486.16;5035340;28;20503;-58
2023/05/13 04:00:47;;;;;;;15.83;5.07;;;11.10;99.90;;;11.12;66.75;95493.81;5033042;28;20482;-65
2023/05/13 04:03:16;;;;;;;7.43;4.90;;;11.10;99.90;;;11.13;66.29;95487.56;5033042;28;20530;-64
2023/05/13 04:05:43;;;;;;;4.77;4.13;;;11.10;99.90;;;11.17;66.28;95492.56;5030940;28;20460;-58
2023/05/13 04:08:11;;;;;;;4.67;4.37;;;11.10;99.90;;;11.20;65.98;95497.59;5030767;28;20498;-58
2023/05/13 04:10:38;;;;;;;6.00;5.50;;;11.20;99.90;;;11.23;66.35;95498.19;5035414;28;20543;-59
2023/05/13 04:13:05;;;;;;;6.93;6.10;;;11.20;99.90;;;11.27;66.58;95488.22;5029375;28;20484;-58
2023/05/13 04:15:34;;;;;;;5.97;5.20;;;11.20;99.90;;;11.34;66.72;95493.78;5031647;28;20471;-58
2023/05/13 04:18:01;;;;;;;5.60;4.87;;;11.30;99.90;;;11.38;66.58;95498.69;5033328;28;20496;-65
2023/05/13 04:20:29;;;;;;;11.60;5.10;;;11.30;99.90;;;11.43;66.33;95501.78;5032236;28;20514;-58
2023/05/13 04:22:56;;;;;;;4.90;4.50;;;11.40;99.90;;;11.48;66.57;95509.28;5027883;28;20520;-58
2023/05/13 04:25:23;;;;;;;8.80;4.87;;;11.40;99.90;;;11.51;66.12;95503.78;5034344;28;20461;-65
2023/05/13 04:27:51;;;;;;;5.93;5.10;;;11.40;99.90;;;11.55;66.13;95509.59;5035025;28;21085;-66
2023/05/13 04:30:18;;;;;;;5.93;5.20;;;11.50;99.90;;;11.59;66.04;95508.38;5034744;28;20457;-57
2023/05/13 04:32:47;;;;;;;10.03;5.30;;;11.50;99.90;;;11.65;65.92;95523.69;5029473;28;20487;-65
2023/05/13 04:35:14;;;;;;;8.80;4.43;;;11.60;99.90;;;11.70;65.57;95512.75;5034378;28;20460;-59
2023/05/13 04:37:41;;;;;;;6.67;5.40;;;11.60;99.90;;;11.75;65.22;95521.91;5031041;28;20549;-59
2023/05/13 04:40:10;;;;;;;5.07;4.53;;;11.70;99.90;;;11.81;65.17;95525.84;5034911;28;21003;-57
2023/05/13 04:42:37;;;;;;;4.40;4.10;;;11.70;99.90;;;11.89;64.65;95514.63;5033128;28;20487;-64
2023/05/13 04:45:06;;;;;;;6.33;4.57;;;11.80;99.90;;;11.99;64.65;95518.16;5033177;28;20464;-61
2023/05/13 04:47:34;;;;;;;4.17;3.87;;;11.90;99.90;;;12.08;64.32;95511.25;5034047;28;20472;-65
2023/05/13 04:50:02;;;;;;;5.40;4.50;;;12.00;99.90;;;12.18;64.01;95522.69;5033325;28;20460;-66
2023/05/13 04:52:30;;;;;;;6.90;5.13;;;12.10;99.90;;;12.26;63.66;95519.38;5032296;28;20477;-67
2023/05/13 04:54:57;;;;;;;6.00;4.50;;;12.10;99.90;;;12.31;63.19;95514.53;5039108;28;20464;-66
2023/05/13 04:57:25;;;;;;;4.40;3.87;;;12.20;99.90;;;12.34;62.88;95509.81;5033645;28;21077;-60
2023/05/13 04:59:52;;;;;;;5.20;3.97;;;12.30;99.90;;;12.36;62.57;95518.44;5040031;28;20884;-59
2023/05/13 05:02:19;;;;;;;6.00;5.53;;;12.30;99.90;;;12.38;62.43;95507.75;5033987;28;21015;-59
2023/05/13 05:04:48;;;;;;;4.13;3.70;;;12.30;99.90;;;12.39;62.57;95506.78;5035823;28;21045;-59
2023/05/13 05:07:16;;;;;;;6.30;4.60;;;12.30;99.90;;;12.42;62.66;95508.31;5030623;28;20464;-66
2023/05/13 05:09:44;;;;;;;9.53;4.00;;;12.30;99.90;;;12.45;63.28;95514.16;5031918;28;20981;-59
2023/05/13 05:12:11;;;;;;;6.60;3.97;;;12.40;99.90;;;12.50;62.41;95516.38;5036656;28;20537;-67
2023/05/13 05:14:38;;;;;;;7.43;4.07;;;12.50;99.90;;;12.53;62.25;95511.69;5032833;28;20469;-59
2023/05/13 05:17:05;;;;;;;4.97;4.43;;;12.50;99.90;;;12.60;61.86;95517.25;5039137;28;20532;-66
2023/05/13 05:19:33;;;;;;;5.73;4.60;;;12.50;99.90;;;12.68;62.15;95530.59;5041908;28;20492;-66
2023/05/13 05:22:00;;;;;;;6.63;3.87;;;12.60;99.90;;;12.76;61.70;95521.97;5037254;28;20447;-65
2023/05/13 05:24:29;;;;;;;5.73;4.83;;;12.70;99.90;;;12.85;61.82;95513.25;5037899;28;20483;-65
2023/05/13 05:26:57;;;;;;;7.43;4.47;;;12.70;99.90;;;12.92;61.97;95508.25;5039163;28;20570;-59
2023/05/13 05:29:26;;;;;;;5.63;4.63;;;12.80;99.90;;;13.03;61.64;95517.84;5038403;28;20528;-59
2023/05/13 05:31:53;;;;;;;5.93;3.80;;;12.90;99.90;;;13.11;61.10;95510.06;5033758;28;20491;-65
2023/05/13 05:34:20;;;;;;;5.53;3.90;;;13.00;99.80;;;13.20;60.23;95514.50;5037052;28;20451;-57
2023/05/13 05:36:48;;;;;;;4.33;3.93;;;13.10;99.10;;;13.25;59.75;95514.09;5033295;28;20458;-57
2023/05/13 05:39:15;;;;;;;8.60;3.73;;;13.20;98.70;;;13.26;59.29;95513.09;5036361;28;20955;-59
2023/05/13 05:41:44;;;;;;;14.50;5.43;;;13.20;98.20;;;13.27;59.08;95525.34;5034415;28;20462;-58
2023/05/13 05:44:12;;;;;;;4.30;3.90;;;13.20;97.90;;;13.30;58.76;95525.06;5035798;28;21030;-58
2023/05/13 05:46:39;;;;;;;4.77;3.87;;;13.20;98.00;;;13.33;58.65;95530.09;5033216;28;20905;-65
2023/05/13 05:49:07;;;;;;;4.70;3.90;;;13.20;97.70;;;13.38;58.49;95516.44;5036334;28;20578;-67
2023/05/13 05:51:34;;;;;;;4.13;3.93;;;13.30;97.50;;;13.43;58.65;95528.28;5034415;28;20601;-65
2023/05/13 05:54:02;;;;;;;5.30;4.73;;;13.30;97.40;;;13.48;58.60;95521.72;5033203;28;20563;-57
2023/05/13 05:56:29;;;;;;;4.70;4.20;;;13.40;97.30;;;13.52;57.87;95521.28;5037954;28;20456;-59
2023/05/13 05:58:58;;;;;;;11.00;3.43;;;13.40;97.00;;;13.57;58.00;95534.94;5035300;28;20528;-66
2023/05/13 06:01:25;;;;;;;3.83;3.43;;;13.50;96.80;;;13.60;57.02;95531.16;5029698;28;20466;-60
2023/05/13 06:03:53;;;;;;;3.77;3.37;;;13.50;96.20;;;13.60;56.58;95537.28;5036452;28;20562;-59
2023/05/13 06:06:21;;;;;;;5.27;3.63;;;13.50;95.80;;;13.60;56.62;95532.00;5033422;28;20452;-57
2023/05/13 06:08:54;;;;;;;5.20;3.47;;;13.50;95.60;;;13.63;56.64;95526.44;5035322;28;21051;-67
2023/05/13 06:11:23;;;;;;;3.37;3.17;;;13.50;95.40;;;13.67;55.86;95531.44;5028903;28;20479;-59
2023/05/13 06:13:51;;;;;;;5.90;3.80;;;13.60;94.90;;;13.70;55.72;95528.50;5029461;28;20560;-68
2023/05/13 06:16:20;;;;;;;6.00;3.27;;;13.60;94.90;;;13.75;56.31;95534.19;5030684;28;20460;-70
2023/05/13 06:18:47;;;;;;;8.60;4.00;;;13.60;95.20;;;13.78;55.88;95540.03;5039467;28;21049;-58
2023/05/13 06:21:14;;;;;;;10.03;4.10;;;13.70;95.00;;;13.82;55.88;95537.94;5036463;28;20468;-58
2023/05/13 06:23:42;;;;;;;7.23;3.50;;;13.70;94.90;;;13.86;55.58;95536.66;5032994;28;20996;-69
2023/05/13 06:26:09;;;;;;;3.83;3.50;;;13.70;94.90;;;13.91;55.93;95533.59;5036640;28;20567;-58
2023/05/13 06:28:37;;;;;;;6.17;3.93;;;13.80;95.00;;;13.97;56.03;95533.88;5039142;28;20467;-69
2023/05/13 06:31:04;;;;;;;6.70;3.70;;;13.90;94.90;;;14.03;55.87;95539.53;5035736;28;20467;-66
2023/05/13 06:33:33;;;;;;;7.40;3.90;;;13.90;94.80;;;14.06;55.61;95541.91;5035437;28;20540;-58
2023/05/13 06:36:00;;;;;;;5.27;3.90;;;13.90;94.70;;;14.11;55.47;95539.66;5036714;28;20452;-58
2023/05/13 06:38:28;;;;;;;12.87;4.10;;;14.00;94.60;;;14.15;55.12;95536.56;5029515;28;20492;-65
2023/05/13 06:40:55;;;;;;;8.20;3.90;;;14.10;94.40;;;14.23;55.04;95543.78;5032784;28;20457;-66
2023/05/13 06:43:22;;;;;;;5.20;3.97;;;14.10;94.30;;;14.32;55.03;95537.59;5035043;28;20479;-68
2023/05/13 06:45:50;;;;;;;10.27;3.63;;;14.20;93.80;;;14.44;54.68;95537.44;5034734;28;20461;-70
2023/05/13 06:48:17;;;;;;;9.30;4.07;;;14.30;93.80;;;14.53;54.23;95537.38;5036564;28;20482;-59
2023/05/13 06:50:46;;;;;;;6.83;4.50;;;14.40;93.40;;;14.63;53.38;95533.88;5028172;28;20469;-67
2023/05/13 06:53:14;;;;;;;6.00;3.30;;;14.50;92.70;;;14.72;53.44;95532.13;5025107;28;20483;-69
2023/05/13 06:55:41;;;;;;;3.80;3.50;;;14.60;92.90;;;14.81;52.79;95531.22;5030363;28;20459;-69
2023/05/13 06:58:09;;;;;;;5.77;2.80;;;14.60;92.00;;;14.91;52.57;95531.19;5036687;28;20512;-67
2023/05/13 07:00:37;;;;;;;10.20;3.37;;;14.70;92.30;;;15.01;51.88;95529.28;5034903;28;20466;-69
2023/05/13 07:03:05;;;;;;;3.50;2.90;;;14.90;91.10;;;15.13;51.42;95535.19;5026473;28;20540;-59
2023/05/13 07:05:32;;;;;;;4.93;2.97;;;15.00;90.70;;;15.25;51.51;95539.28;5033272;28;20484;-69
2023/05/13 07:08:05;;;;;;;6.20;3.20;;;15.10;90.70;;;15.42;50.42;95541.09;5032613;28;20536;-59
2023/05/13 07:10:33;;;;;;;5.13;3.30;;;15.20;90.00;;;15.55;50.35;95540.72;5027861;28;20448;-59
2023/05/13 07:13:01;;;;;;;5.80;3.43;;;15.40;89.40;;;15.66;49.92;95549.38;5023873;28;21423;-59
2023/05/13 07:15:29;;;;;;;9.07;3.70;;;15.50;88.00;;;15.71;49.73;95553.25;5033080;28;20472;-59
2023/05/13 07:17:56;;;;;;;4.87;3.20;;;15.60;87.20;;;15.80;49.51;95563.94;5035120;28;20475;-72
2023/05/13 07:20:25;;;;;;;7.13;3.33;;;15.60;86.80;;;15.88;49.47;95564.00;5034860;28;20448;-59
2023/05/13 07:22:52;;;;;;;3.23;3.03;;;15.70;86.70;;;16.00;49.33;95567.22;5033081;28;20912;-59
2023/05/13 07:25:21;;;;;;;12.33;3.77;;;15.80;86.10;;;16.09;48.60;95569.75;5032745;28;20465;-73
2023/05/13 07:27:48;;;;;;;4.23;2.63;;;15.90;85.40;;;16.21;48.80;95558.91;5037139;28;20800;-74
2023/05/13 07:30:15;;;;;;;2.87;2.57;;;16.00;85.10;;;16.35;48.33;95562.78;5034029;28;20830;-58
2023/05/13 07:32:43;;;;;;;6.90;3.03;;;16.20;83.50;;;16.54;47.96;95557.22;5034608;28;20479;-70
2023/05/13 07:35:10;;;;;;;5.57;3.20;;;16.30;82.40;;;16.72;47.44;95551.81;5040222;28;20899;-70
2023/05/13 07:37:38;;;;;;;4.93;2.67;;;16.50;81.80;;;16.95;47.40;95551.25;5031502;28;20487;-71
2023/05/13 07:40:07;;;;;;;6.07;3.40;;;16.70;82.40;;;17.18;47.03;95549.63;5028995;28;20484;-70
2023/05/13 07:42:36;;;;;;;10.93;3.03;;;16.90;81.80;;;17.34;46.27;95555.97;5033328;28;20515;-70
2023/05/13 07:45:05;;;;;;;5.60;3.90;;;17.10;79.50;;;17.44;45.58;95553.97;5028926;28;20510;-57
2023/05/13 07:47:32;;;;;;;6.87;3.83;;;17.20;77.80;;;17.60;45.91;95552.31;5027955;28;20475;-59
2023/05/13 07:49:59;;;;;;;3.50;3.00;;;17.40;78.60;;;17.85;45.40;95555.81;5037741;28;20468;-69
2023/05/13 07:52:27;;;;;;;30.30;4.77;;;17.60;77.90;;;18.02;45.41;95557.47;5036833;28;20995;-58
2023/05/13 07:54:54;;;;;;;3.53;3.13;;;17.80;76.90;;;18.04;44.11;95554.63;5038017;28;21670;-72
2023/05/13 07:57:21;;;;;;;11.33;3.47;;;17.80;74.10;;;18.07;44.56;95556.97;5034431;28;20491;-70
2023/05/13 07:59:51;;;;;;;8.27;3.40;;;17.90;74.40;;;18.16;44.07;95547.97;5037508;28;20715;-69
2023/05/13 08:02:18;;;;;;;4.73;3.50;;;17.90;73.50;;;18.26;44.60;95548.63;5035797;28;20948;-69
2023/05/13 08:04:46;;;;;;;6.13;4.00;;;18.10;74.10;;;18.37;44.80;95549.22;5034675;28;20465;-60
2023/05/13 08:07:13;;;;;;;4.33;3.83;;;18.10;73.90;;;18.52;44.63;95555.50;5031638;28;20563;-57
2023/05/13 08:09:40;;;;;;;5.30;4.17;;;18.30;74.10;;;18.78;44.11;95549.06;5032776;28;20455;-58
2023/05/13 08:12:08;;;;;;;14.70;4.77;;;18.50;73.30;;;19.05;44.37;95545.13;5028192;28;20945;-58
2023/05/13 08:14:36;;;;;;;8.77;3.77;;;18.80;73.50;;;19.42;43.95;95532.03;5033496;28;20467;-66
2023/05/13 08:17:06;;;;;;;7.93;3.80;;;19.10;73.20;;;19.80;43.10;95534.75;5024052;28;20449;-67
2023/05/13 08:19:34;;;;;;;6.03;3.97;;;19.50;72.00;;;20.12;42.19;95532.78;5027359;28;20560;-58
2023/05/13 08:22:01;;;;;;;4.30;3.90;;;19.80;70.00;;;20.35;42.23;95528.19;5037081;28;21265;-70
2023/05/13 08:24:28;;;;;;;6.33;3.20;;;20.00;69.80;;;20.65;42.03;95527.38;5032274;28;21047;-66
2023/05/13 08:26:56;;;;;;;4.63;4.10;;;20.30;69.20;;;20.94;41.42;95531.84;5034037;28;20564;-65
2023/05/13 08:29:23;;;;;;;7.17;4.37;;;20.60;67.30;;;21.17;41.42;95530.88;5035114;28;20459;-58
2023/05/13 08:31:52;;;;;;;4.27;3.70;;;20.80;67.50;;;21.52;40.85;95528.34;5039180;28;20463;-67
2023/05/13 08:34:20;;;;;;;11.07;3.83;;;21.10;67.60;;;21.92;40.58;95523.31;5034939;28;20475;-59
2023/05/13 08:36:48;;;;;;;6.10;4.27;;;21.50;66.90;;;22.18;40.64;95526.22;5042438;28;20475;-66
2023/05/13 08:39:15;;;;;;;6.93;4.33;;;21.80;65.20;;;22.38;38.96;95526.38;5041518;28;20495;-60
2023/05/13 08:41:43;;;;;;;5.83;4.37;;;22.00;63.20;;;22.34;38.93;95526.97;5039778;28;20976;-59
2023/05/13 08:44:11;;;;;;;4.53;4.10;;;22.00;62.00;;;22.25;39.14;95522.75;5033083;28;20476;-57
2023/05/13 08:46:38;;;;;;;4.53;3.40;;;22.00;62.00;;;22.40;39.17;95514.59;5035314;28;20509;-65
2023/05/13 08:49:06;;;;;;;8.03;3.97;;;22.10;62.60;;;22.74;39.74;95511.06;5034441;28;20587;-60
2023/05/13 08:51:35;;;;;;;4.80;4.40;;;22.30;63.00;;;23.07;38.46;95513.03;5040203;28;20501;-65
2023/05/13 08:54:02;;;;;;;5.37;4.30;;;22.70;61.10;;;23.09;37.93;95498.41;5036648;28;20990;-66
2023/05/13 08:56:29;;;;;;;7.13;4.90;;;22.80;60.90;;;23.18;37.96;95506.28;5037858;28;20461;-59
2023/05/13 08:58:57;;;;;;;10.93;4.87;;;22.80;59.90;;;23.34;38.16;95497.84;5036980;28;20499;-67
2023/05/13 09:01:25;;;;;;;6.50;4.70;;;22.90;60.20;;;23.52;38.95;95491.88;5029849;28;20456;-58
2023/05/13 09:03:57;;;;;;;7.40;4.73;;;23.10;60.90;;;23.75;39.21;95487.94;5033703;28;20518;-57
2023/05/13 09:06:24;;;;;;;5.27;4.23;;;23.30;61.20;;;24.02;37.89;95485.28;5039026;28;20542;-59
2023/05/13 09:08:53;;;;;;;11.43;5.20;;;23.60;60.10;;;24.25;38.33;95491.03;5028895;28;20492;-58
2023/05/13 09:11:21;;;;;;;4.83;4.33;;;23.80;59.50;;;24.50;37.77;95490.34;5034845;28;20547;-59
2023/05/13 09:13:58;;;;;;;5.93;5.03;;;24.10;59.50;;;24.74;37.72;95494.25;5027696;28;20853;-67
2023/05/13 09:16:25;;;;;;;8.10;5.03;;;24.30;59.00;;;25.02;37.33;95493.91;5037165;28;20556;-67
2023/05/13 09:18:58;;;;;;;10.73;4.73;;;24.60;58.30;;;25.21;37.30;95491.31;5033714;28;20492;-60
2023/05/13 09:21:26;;;;;;;9.00;4.87;;;24.80;58.30;;;25.41;36.26;95497.41;5010102;28;20504;-68
2023/05/13 09:24:08;;;;;;;6.90;4.90;;;25.00;57.50;;;25.52;36.23;95492.38;5013353;28;20986;-67
2023/05/13 09:26:36;;;;;;;10.17;5.77;;;25.10;57.10;;;25.45;35.90;95494.28;5010963;28;20877;-67
2023/05/13 09:29:22;;;;;;;12.70;5.83;;;25.10;55.70;;;25.15;35.45;95495.69;5014081;28;21057;-66
2023/05/13 09:31:51;;;;;;;7.50;5.67;;;24.90;55.00;;;24.97;36.38;95498.25;5013797;28;20465;-66
2023/05/13 09:34:29;;;;;;;5.00;4.60;;;24.70;56.00;;;24.98;37.23;95481.91;5012815;28;20996;-59
2023/05/13 09:37:01;;;;;;;15.60;6.00;;;24.70;56.60;;;25.15;37.34;95486.78;5015114;28;20460;-60
2023/05/13 09:39:31;;;;;;;7.67;5.40;;;24.80;57.30;;;25.37;37.37;95473.84;5011618;28;20537;-66
2023/05/13 09:42:00;;;;;;;12.60;7.17;;;24.90;57.50;;;25.50;36.66;95478.28;5016267;28;20454;-58
2023/05/13 09:44:28;;;;;;;12.20;6.30;;;25.10;56.30;;;25.36;36.45;95473.00;5005002;28;20477;-64
2023/05/13 09:46:55;;;;;;;10.97;6.20;;;25.10;55.60;;;25.21;36.74;95473.28;5009363;28;20456;-65
2023/05/13 09:49:23;;;;;;;8.67;5.33;;;25.00;56.00;;;25.04;36.83;95472.97;5013238;28;20456;-64
2023/05/13 09:51:50;;;;;;;7.97;5.63;;;24.80;56.10;;;24.97;37.03;95482.13;5017418;28;20461;-65
2023/05/13 09:54:18;;;;;;;7.83;6.03;;;24.70;56.50;;;24.93;36.45;95476.34;5012637;28;20457;-65
2023/05/13 09:56:47;;;;;;;7.60;5.67;;;24.60;55.90;;;24.86;37.36;95467.47;5015822;28;20456;-59
2023/05/13 09:59:15;;;;;;;14.90;6.70;;;24.60;56.30;;;24.83;37.58;95471.44;5014273;28;20988;-59
2023/05/13 10:01:42;;;;;;;6.97;5.97;;;24.60;56.60;;;24.92;36.88;95474.69;5012323;28;20457;-59
2023/05/13 10:15:34;;;;;;;9.73;6.10;;;24.60;56.00;;;25.55;36.20;95462.31;5116665;27;20549;-59
2023/05/13 10:18:02;;;;;;;8.30;6.03;;;25.20;54.70;;;25.56;36.55;95463.94;5110665;28;20459;-58
2023/05/13 10:20:29;;;;;;;6.70;5.70;;;25.20;55.20;;;25.64;35.89;95460.16;5091643;27;20496;-65
2023/05/13 10:22:56;;;;;;;13.43;5.93;;;25.20;54.80;;;25.68;36.21;95459.50;5093426;27;20860;-59
2023/05/13 10:25:23;;;;;;;6.70;6.10;;;25.20;54.80;;;25.75;36.53;95457.59;5113514;27;20484;-59
2023/05/13 10:27:51;;;;;;;8.17;5.97;;;25.40;55.10;;;25.75;36.22;95454.06;5115609;28;20479;-66
2023/05/13 10:30:24;;;;;;;11.20;6.30;;;25.40;54.60;;;25.74;36.21;95455.91;5114022;27;20540;-65
2023/05/13 10:32:56;;;;;;;7.23;6.50;;;25.40;55.20;;;25.49;36.47;95452.41;5116409;27;20443;-59